sensor_id;sensor_type;location;lat;lon;timestamp;temperature;humidity
3246;DHT22;1635;48.000;10.582;2022-07-22T00:01:25;15.50;99.90
3246;DHT22;1635;48.000;10.582;2022-07-22T00:03:54;15.60;99.90
3246;DHT22;1635;48.000;10.582;2022-07-22T00:06:21;15.70;99.90
3246;DHT22;1635;48.000;10.582;2022-07-22T00:08:49;15.80;99.90
3246;DHT22;1635;48.000;10.582;2022-07-22T00:11:18;15.80;99.90
3246;DHT22;1635;48.000;10.582;2022-07-22T00:13:45;15.80;99.90
3246;DHT22;1635;48.000;10.582;2022-07-22T00:16:14;15.80;99.90
3246;DHT22;1635;48.000;10.582;2022-07-22T00:18:41;15.90;99.90
3246;DHT22;1635;48.000;10.582;2022-07-22T00:21:08;15.90;99.90
3246;DHT22;1635;48.000;10.582;2022-07-22T00:23:38;15.90;99.90
3246;DHT22;1635;48.000;10.582;2022-07-22T00:26:05;15.90;99.90
3246;DHT22;1635;48.000;10.582;2022-07-22T00:28:34;15.90;99.90
3246;DHT22;1635;48.000;10.582;2022-07-22T00:31:02;15.90;99.90
3246;DHT22;1635;48.000;10.582;2022-07-22T00:33:31;15.90;99.90
3246;DHT22;1635;48.000;10.582;2022-07-22T00:35:59;16.00;99.90
3246;DHT22;1635;48.000;10.582;2022-07-22T00:38:28;16.00;99.90
3246;DHT22;1635;48.000;10.582;2022-07-22T00:40:55;16.00;99.90
3246;DHT22;1635;48.000;10.582;2022-07-22T00:43:24;16.00;99.90
3246;DHT22;1635;48.000;10.582;2022-07-22T00:45:51;16.00;99.90
3246;DHT22;1635;48.000;10.582;2022-07-22T00:48:19;16.00;99.90
3246;DHT22;1635;48.000;10.582;2022-07-22T00:50:47;15.90;99.90
3246;DHT22;1635;48.000;10.582;2022-07-22T00:53:16;15.90;99.90
3246;DHT22;1635;48.000;10.582;2022-07-22T00:55:45;15.70;99.90
3246;DHT22;1635;48.000;10.582;2022-07-22T00:58:12;15.60;99.90
3246;DHT22;1635;48.000;10.582;2022-07-22T01:00:40;15.50;99.90
3246;DHT22;1635;48.000;10.582;2022-07-22T01:03:08;15.30;99.90
3246;DHT22;1635;48.000;10.582;2022-07-22T01:05:36;15.30;99.90
3246;DHT22;1635;48.000;10.582;2022-07-22T01:08:05;15.30;99.90
3246;DHT22;1635;48.000;10.582;2022-07-22T01:10:33;15.30;99.90
3246;DHT22;1635;48.000;10.582;2022-07-22T01:13:02;15.30;99.90
3246;DHT22;1635;48.000;10.582;2022-07-22T01:15:29;15.30;99.90
3246;DHT22;1635;48.000;10.582;2022-07-22T01:17:58;15.20;99.90
3246;DHT22;1635;48.000;10.582;2022-07-22T01:20:26;15.10;99.90
3246;DHT22;1635;48.000;10.582;2022-07-22T01:22:53;14.90;99.90
3246;DHT22;1635;48.000;10.582;2022-07-22T01:25:22;14.90;99.90
3246;DHT22;1635;48.000;10.582;2022-07-22T01:27:49;14.90;99.90
3246;DHT22;1635;48.000;10.582;2022-07-22T01:30:18;14.90;99.90
3246;DHT22;1635;48.000;10.582;2022-07-22T01:32:45;14.80;99.90
3246;DHT22;1635;48.000;10.582;2022-07-22T01:35:14;14.70;99.90
3246;DHT22;1635;48.000;10.582;2022-07-22T01:37:41;14.80;99.90
3246;DHT22;1635;48.000;10.582;2022-07-22T01:40:10;14.80;99.90
3246;DHT22;1635;48.000;10.582;2022-07-22T01:42:37;14.90;99.90
3246;DHT22;1635;48.000;10.582;2022-07-22T01:45:07;14.80;99.90
3246;DHT22;1635;48.000;10.582;2022-07-22T01:47:34;14.70;99.90
3246;DHT22;1635;48.000;10.582;2022-07-22T01:50:05;14.60;99.90
3246;DHT22;1635;48.000;10.582;2022-07-22T01:52:34;14.50;99.90
3246;DHT22;1635;48.000;10.582;2022-07-22T01:55:07;14.40;99.90
3246;DHT22;1635;48.000;10.582;2022-07-22T01:57:36;14.40;99.90
3246;DHT22;1635;48.000;10.582;2022-07-22T02:00:15;14.30;99.90
3246;DHT22;1635;48.000;10.582;2022-07-22T02:02:42;14.20;99.90
3246;DHT22;1635;48.000;10.582;2022-07-22T02:05:11;14.20;99.90
3246;DHT22;1635;48.000;10.582;2022-07-22T02:07:39;14.30;99.90
3246;DHT22;1635;48.000;10.582;2022-07-22T02:10:08;14.30;99.90
3246;DHT22;1635;48.000;10.582;2022-07-22T02:12:39;14.30;99.90
3246;DHT22;1635;48.000;10.582;2022-07-22T02:15:08;14.30;99.90
3246;DHT22;1635;48.000;10.582;2022-07-22T02:17:35;14.30;99.90
3246;DHT22;1635;48.000;10.582;2022-07-22T02:20:05;14.40;99.90
3246;DHT22;1635;48.000;10.582;2022-07-22T02:22:32;14.50;99.90
3246;DHT22;1635;48.000;10.582;2022-07-22T02:25:02;14.50;99.90
3246;DHT22;1635;48.000;10.582;2022-07-22T02:27:30;14.40;99.90
3246;DHT22;1635;48.000;10.582;2022-07-22T02:29:58;14.40;99.90
3246;DHT22;1635;48.000;10.582;2022-07-22T02:32:26;14.30;99.90
3246;DHT22;1635;48.000;10.582;2022-07-22T02:34:55;14.30;99.90
3246;DHT22;1635;48.000;10.582;2022-07-22T02:37:23;14.30;99.90
3246;DHT22;1635;48.000;10.582;2022-07-22T02:39:52;14.40;99.90
3246;DHT22;1635;48.000;10.582;2022-07-22T02:42:20;14.40;99.90
3246;DHT22;1635;48.000;10.582;2022-07-22T02:44:50;14.30;99.90
3246;DHT22;1635;48.000;10.582;2022-07-22T02:47:18;14.20;99.90
3246;DHT22;1635;48.000;10.582;2022-07-22T02:49:46;14.20;99.90
3246;DHT22;1635;48.000;10.582;2022-07-22T02:52:14;14.20;99.90
3246;DHT22;1635;48.000;10.582;2022-07-22T02:54:43;14.00;99.90
3246;DHT22;1635;48.000;10.582;2022-07-22T02:57:10;14.00;99.90
3246;DHT22;1635;48.000;10.582;2022-07-22T02:59:39;13.90;99.90
3246;DHT22;1635;48.000;10.582;2022-07-22T03:02:06;13.80;99.90
3246;DHT22;1635;48.000;10.582;2022-07-22T03:04:35;13.80;99.90
3246;DHT22;1635;48.000;10.582;2022-07-22T03:07:02;13.70;99.90
3246;DHT22;1635;48.000;10.582;2022-07-22T03:09:32;13.70;99.90
3246;DHT22;1635;48.000;10.582;2022-07-22T03:12:02;13.70;99.90
3246;DHT22;1635;48.000;10.582;2022-07-22T03:14:30;13.80;99.90
3246;DHT22;1635;48.000;10.582;2022-07-22T03:16:58;13.80;99.90
3246;DHT22;1635;48.000;10.582;2022-07-22T03:19:27;13.70;99.90
3246;DHT22;1635;48.000;10.582;2022-07-22T03:21:57;13.70;99.90
3246;DHT22;1635;48.000;10.582;2022-07-22T03:24:24;13.60;99.90
3246;DHT22;1635;48.000;10.582;2022-07-22T03:26:53;13.50;99.90
3246;DHT22;1635;48.000;10.582;2022-07-22T03:29:20;13.50;99.90
3246;DHT22;1635;48.000;10.582;2022-07-22T03:31:49;13.40;99.90
3246;DHT22;1635;48.000;10.582;2022-07-22T03:34:27;13.40;99.90
3246;DHT22;1635;48.000;10.582;2022-07-22T03:37:03;13.40;99.90
3246;DHT22;1635;48.000;10.582;2022-07-22T03:39:31;13.40;99.90
3246;DHT22;1635;48.000;10.582;2022-07-22T03:42:00;13.50;99.90
3246;DHT22;1635;48.000;10.582;2022-07-22T03:44:31;13.50;99.90
3246;DHT22;1635;48.000;10.582;2022-07-22T03:47:00;13.60;99.90
3246;DHT22;1635;48.000;10.582;2022-07-22T03:49:30;13.50;99.90
3246;DHT22;1635;48.000;10.582;2022-07-22T03:52:00;13.50;99.90
3246;DHT22;1635;48.000;10.582;2022-07-22T03:54:29;13.50;99.90
3246;DHT22;1635;48.000;10.582;2022-07-22T03:56:57;13.50;99.90
3246;DHT22;1635;48.000;10.582;2022-07-22T03:59:27;13.50;99.90
3246;DHT22;1635;48.000;10.582;2022-07-22T04:01:55;13.50;99.90
3246;DHT22;1635;48.000;10.582;2022-07-22T04:04:23;13.50;99.90
3246;DHT22;1635;48.000;10.582;2022-07-22T04:06:52;13.50;99.90
3246;DHT22;1635;48.000;10.582;2022-07-22T04:09:24;13.60;99.90
3246;DHT22;1635;48.000;10.582;2022-07-22T04:11:53;13.60;99.90
3246;DHT22;1635;48.000;10.582;2022-07-22T04:14:23;13.60;99.90
3246;DHT22;1635;48.000;10.582;2022-07-22T04:16:52;13.60;99.90
3246;DHT22;1635;48.000;10.582;2022-07-22T04:19:19;13.60;99.90
3246;DHT22;1635;48.000;10.582;2022-07-22T04:21:51;13.70;99.90
3246;DHT22;1635;48.000;10.582;2022-07-22T04:24:20;13.80;99.90
3246;DHT22;1635;48.000;10.582;2022-07-22T04:26:49;13.90;99.90
3246;DHT22;1635;48.000;10.582;2022-07-22T04:29:17;14.00;99.90
3246;DHT22;1635;48.000;10.582;2022-07-22T04:31:46;14.00;99.90
3246;DHT22;1635;48.000;10.582;2022-07-22T04:34:16;14.00;99.90
3246;DHT22;1635;48.000;10.582;2022-07-22T04:36:47;14.00;99.90
3246;DHT22;1635;48.000;10.582;2022-07-22T04:39:15;14.00;99.90
3246;DHT22;1635;48.000;10.582;2022-07-22T04:41:50;14.00;99.90
3246;DHT22;1635;48.000;10.582;2022-07-22T04:44:19;14.10;99.90
3246;DHT22;1635;48.000;10.582;2022-07-22T04:46:48;14.20;99.90
3246;DHT22;1635;48.000;10.582;2022-07-22T04:49:15;14.30;99.90
3246;DHT22;1635;48.000;10.582;2022-07-22T04:51:44;14.30;99.90
3246;DHT22;1635;48.000;10.582;2022-07-22T04:54:17;14.40;99.90
3246;DHT22;1635;48.000;10.582;2022-07-22T04:56:49;14.50;99.90
3246;DHT22;1635;48.000;10.582;2022-07-22T04:59:17;14.70;99.90
3246;DHT22;1635;48.000;10.582;2022-07-22T05:01:46;14.80;99.90
3246;DHT22;1635;48.000;10.582;2022-07-22T05:04:15;14.90;99.90
3246;DHT22;1635;48.000;10.582;2022-07-22T05:06:44;14.90;99.90
3246;DHT22;1635;48.000;10.582;2022-07-22T05:09:13;15.00;99.90
3246;DHT22;1635;48.000;10.582;2022-07-22T05:11:42;15.10;99.90
3246;DHT22;1635;48.000;10.582;2022-07-22T05:14:10;15.10;99.90
3246;DHT22;1635;48.000;10.582;2022-07-22T05:16:38;15.20;99.90
3246;DHT22;1635;48.000;10.582;2022-07-22T05:19:07;15.30;99.90
3246;DHT22;1635;48.000;10.582;2022-07-22T05:21:35;15.50;99.90
3246;DHT22;1635;48.000;10.582;2022-07-22T05:24:04;15.70;99.90
3246;DHT22;1635;48.000;10.582;2022-07-22T05:26:33;15.90;99.90
3246;DHT22;1635;48.000;10.582;2022-07-22T05:29:02;16.10;99.90
3246;DHT22;1635;48.000;10.582;2022-07-22T05:31:30;16.30;99.90
3246;DHT22;1635;48.000;10.582;2022-07-22T05:33:58;16.60;99.90
3246;DHT22;1635;48.000;10.582;2022-07-22T05:36:30;16.90;99.90
3246;DHT22;1635;48.000;10.582;2022-07-22T05:38:58;17.80;99.90
3246;DHT22;1635;48.000;10.582;2022-07-22T05:41:28;19.30;99.90
3246;DHT22;1635;48.000;10.582;2022-07-22T05:43:55;20.90;99.90
3246;DHT22;1635;48.000;10.582;2022-07-22T05:46:24;22.60;99.90
3246;DHT22;1635;48.000;10.582;2022-07-22T05:48:51;24.10;99.90
3246;DHT22;1635;48.000;10.582;2022-07-22T05:51:22;25.30;99.90
3246;DHT22;1635;48.000;10.582;2022-07-22T05:53:50;26.10;99.90
3246;DHT22;1635;48.000;10.582;2022-07-22T05:56:18;27.20;99.90
3246;DHT22;1635;48.000;10.582;2022-07-22T05:58:46;28.10;99.90
3246;DHT22;1635;48.000;10.582;2022-07-22T06:01:14;29.00;99.90
3246;DHT22;1635;48.000;10.582;2022-07-22T06:03:44;29.80;99.90
3246;DHT22;1635;48.000;10.582;2022-07-22T06:06:14;30.50;99.90
3246;DHT22;1635;48.000;10.582;2022-07-22T06:08:42;30.70;99.90
3246;DHT22;1635;48.000;10.582;2022-07-22T06:11:11;30.60;99.90
3246;DHT22;1635;48.000;10.582;2022-07-22T06:13:38;31.00;99.90
3246;DHT22;1635;48.000;10.582;2022-07-22T06:16:06;31.30;99.90
3246;DHT22;1635;48.000;10.582;2022-07-22T06:18:35;30.50;99.90
3246;DHT22;1635;48.000;10.582;2022-07-22T06:21:04;29.90;99.90
3246;DHT22;1635;48.000;10.582;2022-07-22T06:23:33;29.80;99.90
3246;DHT22;1635;48.000;10.582;2022-07-22T06:26:02;28.90;99.90
3246;DHT22;1635;48.000;10.582;2022-07-22T06:28:35;28.40;99.90
3246;DHT22;1635;48.000;10.582;2022-07-22T06:31:04;28.30;99.90
3246;DHT22;1635;48.000;10.582;2022-07-22T06:33:33;28.00;99.90
3246;DHT22;1635;48.000;10.582;2022-07-22T06:36:02;26.90;99.90
3246;DHT22;1635;48.000;10.582;2022-07-22T06:38:32;26.60;99.90
3246;DHT22;1635;48.000;10.582;2022-07-22T06:41:39;26.40;99.90
3246;DHT22;1635;48.000;10.582;2022-07-22T06:44:37;26.00;99.90
3246;DHT22;1635;48.000;10.582;2022-07-22T06:47:31;25.70;99.90
3246;DHT22;1635;48.000;10.582;2022-07-22T06:50:00;25.50;99.90
3246;DHT22;1635;48.000;10.582;2022-07-22T06:52:30;25.00;99.90
3246;DHT22;1635;48.000;10.582;2022-07-22T06:54:59;24.60;99.90
3246;DHT22;1635;48.000;10.582;2022-07-22T06:57:34;24.40;99.90
3246;DHT22;1635;48.000;10.582;2022-07-22T07:00:05;24.10;99.90
3246;DHT22;1635;48.000;10.582;2022-07-22T07:02:43;24.20;99.90
3246;DHT22;1635;48.000;10.582;2022-07-22T07:05:13;24.10;99.90
3246;DHT22;1635;48.000;10.582;2022-07-22T07:07:47;23.90;99.90
3246;DHT22;1635;48.000;10.582;2022-07-22T07:10:15;23.90;99.90
3246;DHT22;1635;48.000;10.582;2022-07-22T07:12:55;23.70;99.90
3246;DHT22;1635;48.000;10.582;2022-07-22T07:15:37;23.80;99.90
3246;DHT22;1635;48.000;10.582;2022-07-22T07:18:08;23.90;99.90
3246;DHT22;1635;48.000;10.582;2022-07-22T07:20:37;24.30;99.90
3246;DHT22;1635;48.000;10.582;2022-07-22T07:23:07;25.20;99.90
3246;DHT22;1635;48.000;10.582;2022-07-22T07:25:39;26.10;99.90
3246;DHT22;1635;48.000;10.582;2022-07-22T07:28:08;27.20;99.90
3246;DHT22;1635;48.000;10.582;2022-07-22T07:30:57;28.10;99.90
3246;DHT22;1635;48.000;10.582;2022-07-22T07:33:26;28.60;99.90
3246;DHT22;1635;48.000;10.582;2022-07-22T07:35:54;28.60;99.90
3246;DHT22;1635;48.000;10.582;2022-07-22T07:38:32;29.10;99.90
3246;DHT22;1635;48.000;10.582;2022-07-22T07:41:03;29.60;99.90
3246;DHT22;1635;48.000;10.582;2022-07-22T07:43:31;30.30;99.90
3246;DHT22;1635;48.000;10.582;2022-07-22T07:46:01;30.70;99.90
3246;DHT22;1635;48.000;10.582;2022-07-22T07:48:30;31.00;99.90
3246;DHT22;1635;48.000;10.582;2022-07-22T07:50:58;31.30;99.90
3246;DHT22;1635;48.000;10.582;2022-07-22T07:53:26;31.60;99.90
3246;DHT22;1635;48.000;10.582;2022-07-22T07:55:55;31.60;99.90
3246;DHT22;1635;48.000;10.582;2022-07-22T07:58:24;31.60;99.90
3246;DHT22;1635;48.000;10.582;2022-07-22T08:00:52;31.20;99.90
3246;DHT22;1635;48.000;10.582;2022-07-22T08:03:21;31.50;99.90
3246;DHT22;1635;48.000;10.582;2022-07-22T08:05:49;32.00;99.90
3246;DHT22;1635;48.000;10.582;2022-07-22T08:08:21;31.10;99.90
3246;DHT22;1635;48.000;10.582;2022-07-22T08:10:51;31.60;99.90
3246;DHT22;1635;48.000;10.582;2022-07-22T08:13:31;32.00;99.90
3246;DHT22;1635;48.000;10.582;2022-07-22T08:16:12;32.40;99.90
3246;DHT22;1635;48.000;10.582;2022-07-22T08:18:43;32.10;99.90
3246;DHT22;1635;48.000;10.582;2022-07-22T08:21:12;31.60;99.90
3246;DHT22;1635;48.000;10.582;2022-07-22T08:23:50;32.10;99.90
3246;DHT22;1635;48.000;10.582;2022-07-22T08:26:18;31.60;99.90
3246;DHT22;1635;48.000;10.582;2022-07-22T08:28:47;31.40;99.90
3246;DHT22;1635;48.000;10.582;2022-07-22T08:31:15;31.40;99.90
3246;DHT22;1635;48.000;10.582;2022-07-22T08:33:43;31.40;99.90
3246;DHT22;1635;48.000;10.582;2022-07-22T08:36:11;31.60;99.90
3246;DHT22;1635;48.000;10.582;2022-07-22T08:38:39;31.60;99.90
3246;DHT22;1635;48.000;10.582;2022-07-22T08:41:07;31.60;99.90
3246;DHT22;1635;48.000;10.582;2022-07-22T08:43:38;31.50;99.90
3246;DHT22;1635;48.000;10.582;2022-07-22T08:46:10;32.10;99.90
3246;DHT22;1635;48.000;10.582;2022-07-22T08:48:57;32.10;99.90
3246;DHT22;1635;48.000;10.582;2022-07-22T08:51:53;32.20;99.90
3246;DHT22;1635;48.000;10.582;2022-07-22T08:54:27;32.30;99.90
3246;DHT22;1635;48.000;10.582;2022-07-22T08:56:56;32.30;99.90
3246;DHT22;1635;48.000;10.582;2022-07-22T08:59:24;32.10;99.90
3246;DHT22;1635;48.000;10.582;2022-07-22T09:02:07;32.50;99.90
3246;DHT22;1635;48.000;10.582;2022-07-22T09:04:53;32.60;99.90
3246;DHT22;1635;48.000;10.582;2022-07-22T09:07:32;32.70;99.90
3246;DHT22;1635;48.000;10.582;2022-07-22T09:10:17;33.00;99.90
3246;DHT22;1635;48.000;10.582;2022-07-22T09:13:07;33.40;99.90
3246;DHT22;1635;48.000;10.582;2022-07-22T09:15:54;33.50;99.90
3246;DHT22;1635;48.000;10.582;2022-07-22T09:18:54;34.00;99.90
3246;DHT22;1635;48.000;10.582;2022-07-22T09:21:44;33.50;99.90
3246;DHT22;1635;48.000;10.582;2022-07-22T09:24:41;32.60;99.90
3246;DHT22;1635;48.000;10.582;2022-07-22T09:27:28;32.40;99.90
3246;DHT22;1635;48.000;10.582;2022-07-22T09:30:26;33.20;99.90
3246;DHT22;1635;48.000;10.582;2022-07-22T09:33:07;33.60;99.90
3246;DHT22;1635;48.000;10.582;2022-07-22T09:35:42;33.80;99.90
3246;DHT22;1635;48.000;10.582;2022-07-22T09:38:27;34.30;99.90
3246;DHT22;1635;48.000;10.582;2022-07-22T09:40:58;34.10;99.90
3246;DHT22;1635;48.000;10.582;2022-07-22T09:43:28;34.60;99.90
3246;DHT22;1635;48.000;10.582;2022-07-22T09:46:02;34.90;99.90
3246;DHT22;1635;48.000;10.582;2022-07-22T09:48:52;34.70;99.10
3246;DHT22;1635;48.000;10.582;2022-07-22T09:51:41;35.00;97.80
3246;DHT22;1635;48.000;10.582;2022-07-22T09:54:20;34.10;98.80
3246;DHT22;1635;48.000;10.582;2022-07-22T09:56:50;34.60;98.70
3246;DHT22;1635;48.000;10.582;2022-07-22T09:59:19;34.40;97.80
3246;DHT22;1635;48.000;10.582;2022-07-22T10:02:03;34.30;97.00
3246;DHT22;1635;48.000;10.582;2022-07-22T10:04:33;34.50;97.40
3246;DHT22;1635;48.000;10.582;2022-07-22T10:07:07;35.10;96.60
3246;DHT22;1635;48.000;10.582;2022-07-22T10:09:37;35.70;96.10
3246;DHT22;1635;48.000;10.582;2022-07-22T10:12:07;35.30;97.10
3246;DHT22;1635;48.000;10.582;2022-07-22T10:14:37;34.60;98.00
3246;DHT22;1635;48.000;10.582;2022-07-22T10:17:06;35.20;96.90
3246;DHT22;1635;48.000;10.582;2022-07-22T10:19:35;35.70;96.20
3246;DHT22;1635;48.000;10.582;2022-07-22T10:22:03;35.60;96.10
3246;DHT22;1635;48.000;10.582;2022-07-22T10:24:31;35.20;95.80
3246;DHT22;1635;48.000;10.582;2022-07-22T10:27:00;35.30;96.20
3246;DHT22;1635;48.000;10.582;2022-07-22T10:29:39;35.70;96.00
3246;DHT22;1635;48.000;10.582;2022-07-22T10:37:39;37.40;95.00
3246;DHT22;1635;48.000;10.582;2022-07-22T10:45:41;36.60;94.90
3246;DHT22;1635;48.000;10.582;2022-07-22T10:48:14;36.20;94.40
3246;DHT22;1635;48.000;10.582;2022-07-22T10:50:44;36.20;94.40
3246;DHT22;1635;48.000;10.582;2022-07-22T10:53:17;36.20;95.20
3246;DHT22;1635;48.000;10.582;2022-07-22T10:56:07;36.40;95.20
3246;DHT22;1635;48.000;10.582;2022-07-22T10:58:39;37.70;93.10
3246;DHT22;1635;48.000;10.582;2022-07-22T11:01:11;38.60;92.70
3246;DHT22;1635;48.000;10.582;2022-07-22T11:03:42;37.70;93.50
3246;DHT22;1635;48.000;10.582;2022-07-22T11:06:32;36.90;93.30
3246;DHT22;1635;48.000;10.582;2022-07-22T11:09:05;36.80;93.20
3246;DHT22;1635;48.000;10.582;2022-07-22T11:11:35;37.10;92.30
3246;DHT22;1635;48.000;10.582;2022-07-22T11:14:29;36.70;92.40
3246;DHT22;1635;48.000;10.582;2022-07-22T11:17:00;37.10;92.40
3246;DHT22;1635;48.000;10.582;2022-07-22T11:19:32;37.30;92.00
3246;DHT22;1635;48.000;10.582;2022-07-22T11:22:02;38.00;92.00
3246;DHT22;1635;48.000;10.582;2022-07-22T11:24:34;37.30;92.10
3246;DHT22;1635;48.000;10.582;2022-07-22T11:27:02;36.90;92.80
3246;DHT22;1635;48.000;10.582;2022-07-22T11:29:37;35.50;92.00
3246;DHT22;1635;48.000;10.582;2022-07-22T11:32:09;36.00;93.00
3246;DHT22;1635;48.000;10.582;2022-07-22T11:34:42;36.50;92.10
3246;DHT22;1635;48.000;10.582;2022-07-22T11:37:23;37.40;92.30
3246;DHT22;1635;48.000;10.582;2022-07-22T11:39:59;38.60;90.90
3246;DHT22;1635;48.000;10.582;2022-07-22T11:42:28;38.90;89.60
3246;DHT22;1635;48.000;10.582;2022-07-22T11:44:56;37.70;91.10
3246;DHT22;1635;48.000;10.582;2022-07-22T11:47:25;38.20;92.10
3246;DHT22;1635;48.000;10.582;2022-07-22T11:49:54;38.00;89.70
3246;DHT22;1635;48.000;10.582;2022-07-22T11:52:22;37.70;89.80
3246;DHT22;1635;48.000;10.582;2022-07-22T11:54:49;37.20;88.70
3246;DHT22;1635;48.000;10.582;2022-07-22T11:57:18;37.00;90.10
3246;DHT22;1635;48.000;10.582;2022-07-22T11:59:46;36.70;90.50
3246;DHT22;1635;48.000;10.582;2022-07-22T12:02:14;37.60;90.00
3246;DHT22;1635;48.000;10.582;2022-07-22T12:04:42;38.20;88.70
3246;DHT22;1635;48.000;10.582;2022-07-22T12:07:14;38.90;87.20
3246;DHT22;1635;48.000;10.582;2022-07-22T12:09:43;39.60;85.10
3246;DHT22;1635;48.000;10.582;2022-07-22T12:12:13;40.20;82.60
3246;DHT22;1635;48.000;10.582;2022-07-22T12:14:46;40.50;85.30
3246;DHT22;1635;48.000;10.582;2022-07-22T12:17:15;40.10;84.00
3246;DHT22;1635;48.000;10.582;2022-07-22T12:19:47;40.20;83.50
3246;DHT22;1635;48.000;10.582;2022-07-22T12:22:22;40.10;85.00
3246;DHT22;1635;48.000;10.582;2022-07-22T12:25:00;39.90;83.80
3246;DHT22;1635;48.000;10.582;2022-07-22T12:27:30;39.90;83.40
3246;DHT22;1635;48.000;10.582;2022-07-22T12:29:58;40.10;80.80
3246;DHT22;1635;48.000;10.582;2022-07-22T12:32:29;40.10;80.20
3246;DHT22;1635;48.000;10.582;2022-07-22T12:35:02;41.20;81.70
3246;DHT22;1635;48.000;10.582;2022-07-22T12:37:34;40.10;77.70
3246;DHT22;1635;48.000;10.582;2022-07-22T12:40:17;39.90;78.60
3246;DHT22;1635;48.000;10.582;2022-07-22T12:43:06;40.00;78.30
3246;DHT22;1635;48.000;10.582;2022-07-22T12:45:36;40.20;78.60
3246;DHT22;1635;48.000;10.582;2022-07-22T12:48:07;40.50;79.10
3246;DHT22;1635;48.000;10.582;2022-07-22T12:50:40;40.00;80.60
3246;DHT22;1635;48.000;10.582;2022-07-22T12:53:16;39.10;81.50
3246;DHT22;1635;48.000;10.582;2022-07-22T12:55:47;38.50;81.70
3246;DHT22;1635;48.000;10.582;2022-07-22T12:58:16;38.40;80.80
3246;DHT22;1635;48.000;10.582;2022-07-22T13:00:49;37.70;80.10
3246;DHT22;1635;48.000;10.582;2022-07-22T13:03:18;37.50;81.60
3246;DHT22;1635;48.000;10.582;2022-07-22T13:05:52;37.50;81.30
3246;DHT22;1635;48.000;10.582;2022-07-22T13:08:22;38.20;79.40
3246;DHT22;1635;48.000;10.582;2022-07-22T13:10:51;38.30;77.60
3246;DHT22;1635;48.000;10.582;2022-07-22T13:13:19;38.80;80.50
3246;DHT22;1635;48.000;10.582;2022-07-22T13:15:50;39.00;76.10
3246;DHT22;1635;48.000;10.582;2022-07-22T13:18:18;39.50;78.60
3246;DHT22;1635;48.000;10.582;2022-07-22T13:20:46;39.10;76.20
3246;DHT22;1635;48.000;10.582;2022-07-22T13:23:14;38.90;75.90
3246;DHT22;1635;48.000;10.582;2022-07-22T13:25:42;40.20;76.70
3246;DHT22;1635;48.000;10.582;2022-07-22T13:28:10;41.00;75.80
3246;DHT22;1635;48.000;10.582;2022-07-22T13:30:38;41.50;73.20
3246;DHT22;1635;48.000;10.582;2022-07-22T13:33:06;41.70;73.10
3246;DHT22;1635;48.000;10.582;2022-07-22T13:35:34;41.90;72.90
3246;DHT22;1635;48.000;10.582;2022-07-22T13:38:03;41.90;71.60
3246;DHT22;1635;48.000;10.582;2022-07-22T13:40:31;41.10;72.70
3246;DHT22;1635;48.000;10.582;2022-07-22T13:42:59;41.00;72.90
3246;DHT22;1635;48.000;10.582;2022-07-22T13:45:27;41.10;71.40
3246;DHT22;1635;48.000;10.582;2022-07-22T13:47:55;41.40;70.60
3246;DHT22;1635;48.000;10.582;2022-07-22T13:50:22;40.80;70.30
3246;DHT22;1635;48.000;10.582;2022-07-22T13:52:50;40.60;71.40
3246;DHT22;1635;48.000;10.582;2022-07-22T13:55:17;40.40;72.50
3246;DHT22;1635;48.000;10.582;2022-07-22T13:57:46;40.70;72.10
3246;DHT22;1635;48.000;10.582;2022-07-22T14:00:14;41.40;73.60
3246;DHT22;1635;48.000;10.582;2022-07-22T14:02:43;41.60;70.20
3246;DHT22;1635;48.000;10.582;2022-07-22T14:05:12;41.70;69.70
3246;DHT22;1635;48.000;10.582;2022-07-22T14:07:42;40.80;70.30
3246;DHT22;1635;48.000;10.582;2022-07-22T14:10:10;40.00;71.40
3246;DHT22;1635;48.000;10.582;2022-07-22T14:12:39;40.60;71.30
3246;DHT22;1635;48.000;10.582;2022-07-22T14:15:07;40.70;70.40
3246;DHT22;1635;48.000;10.582;2022-07-22T14:17:36;41.30;70.70
3246;DHT22;1635;48.000;10.582;2022-07-22T14:20:04;41.20;70.40
3246;DHT22;1635;48.000;10.582;2022-07-22T14:22:35;40.80;67.70
3246;DHT22;1635;48.000;10.582;2022-07-22T14:25:03;41.20;67.30
3246;DHT22;1635;48.000;10.582;2022-07-22T14:27:32;40.70;67.80
3246;DHT22;1635;48.000;10.582;2022-07-22T14:30:00;40.10;69.00
3246;DHT22;1635;48.000;10.582;2022-07-22T14:32:29;40.00;70.10
3246;DHT22;1635;48.000;10.582;2022-07-22T14:34:57;40.30;70.80
3246;DHT22;1635;48.000;10.582;2022-07-22T14:37:25;40.20;69.60
3246;DHT22;1635;48.000;10.582;2022-07-22T14:39:54;40.50;72.00
3246;DHT22;1635;48.000;10.582;2022-07-22T14:42:22;39.90;71.00
3246;DHT22;1635;48.000;10.582;2022-07-22T14:44:50;40.50;69.20
3246;DHT22;1635;48.000;10.582;2022-07-22T14:47:18;40.80;68.30
3246;DHT22;1635;48.000;10.582;2022-07-22T14:49:51;40.40;69.00
3246;DHT22;1635;48.000;10.582;2022-07-22T14:52:18;39.90;69.10
3246;DHT22;1635;48.000;10.582;2022-07-22T14:54:46;38.70;72.30
3246;DHT22;1635;48.000;10.582;2022-07-22T14:57:14;37.80;71.40
3246;DHT22;1635;48.000;10.582;2022-07-22T14:59:41;37.10;72.00
3246;DHT22;1635;48.000;10.582;2022-07-22T15:02:09;36.40;73.40
3246;DHT22;1635;48.000;10.582;2022-07-22T15:04:37;36.00;74.90
3246;DHT22;1635;48.000;10.582;2022-07-22T15:07:06;35.40;75.60
3246;DHT22;1635;48.000;10.582;2022-07-22T15:09:34;34.80;74.30
3246;DHT22;1635;48.000;10.582;2022-07-22T15:12:03;34.20;75.40
3246;DHT22;1635;48.000;10.582;2022-07-22T15:14:30;33.90;75.90
3246;DHT22;1635;48.000;10.582;2022-07-22T15:16:58;33.70;76.30
3246;DHT22;1635;48.000;10.582;2022-07-22T15:19:26;33.50;76.80
3246;DHT22;1635;48.000;10.582;2022-07-22T15:21:56;33.40;77.70
3246;DHT22;1635;48.000;10.582;2022-07-22T15:24:24;33.30;75.40
3246;DHT22;1635;48.000;10.582;2022-07-22T15:26:52;33.30;75.90
3246;DHT22;1635;48.000;10.582;2022-07-22T15:29:20;33.10;75.00
3246;DHT22;1635;48.000;10.582;2022-07-22T15:31:48;33.00;74.50
3246;DHT22;1635;48.000;10.582;2022-07-22T15:34:17;33.10;75.10
3246;DHT22;1635;48.000;10.582;2022-07-22T15:36:44;33.40;76.10
3246;DHT22;1635;48.000;10.582;2022-07-22T15:39:13;33.70;74.20
3246;DHT22;1635;48.000;10.582;2022-07-22T15:41:41;34.00;73.60
3246;DHT22;1635;48.000;10.582;2022-07-22T15:44:09;34.10;74.10
3246;DHT22;1635;48.000;10.582;2022-07-22T15:46:37;34.10;73.50
3246;DHT22;1635;48.000;10.582;2022-07-22T15:49:05;33.90;74.20
3246;DHT22;1635;48.000;10.582;2022-07-22T15:51:34;34.00;72.80
3246;DHT22;1635;48.000;10.582;2022-07-22T15:54:02;33.80;72.90
3246;DHT22;1635;48.000;10.582;2022-07-22T15:56:30;33.80;72.80
3246;DHT22;1635;48.000;10.582;2022-07-22T15:58:58;33.60;74.50
3246;DHT22;1635;48.000;10.582;2022-07-22T16:01:55;33.60;75.60
3246;DHT22;1635;48.000;10.582;2022-07-22T16:04:24;33.20;73.30
3246;DHT22;1635;48.000;10.582;2022-07-22T16:06:51;33.10;73.00
3246;DHT22;1635;48.000;10.582;2022-07-22T16:09:19;33.10;74.70
3246;DHT22;1635;48.000;10.582;2022-07-22T16:11:54;32.90;73.30
3246;DHT22;1635;48.000;10.582;2022-07-22T16:14:21;32.90;75.10
3246;DHT22;1635;48.000;10.582;2022-07-22T16:16:50;32.90;76.00
3246;DHT22;1635;48.000;10.582;2022-07-22T16:19:17;32.90;77.00